Time;durP1;ratioP1;P1;durP2;ratioP2;P2;SDS_P1;SDS_P2;PMS_P1;PMS_P2;Temp;Humidity;BMP_temperature;BMP_pressure;BME280_temperature;BME280_humidity;BME280_pressure;Samples;Min_cycle;Max_cycle;Signal;HPM_P1;HPM_P2
2022/05/27 00:00:21;;;;;;;102.97;67.90;;;27.50;99.90;;;;;;5054334;28;20047;-61
2022/05/27 00:02:50;;;;;;;97.10;60.63;;;27.50;99.90;;;;;;5054337;28;20029;-61
2022/05/27 00:05:19;;;;;;;94.72;57.80;;;27.50;99.90;;;;;;5055933;28;20037;-62
2022/05/27 00:07:45;;;;;;;78.95;51.70;;;27.50;99.90;;;;;;5055819;28;20037;-62
2022/05/27 00:10:14;;;;;;;82.72;49.90;;;27.60;99.90;;;;;;5055439;28;20025;-62
2022/05/27 00:12:40;;;;;;;73.55;43.55;;;27.60;99.90;;;;;;5054445;28;20425;-62
2022/05/27 00:15:08;;;;;;;50.65;37.38;;;27.70;99.90;;;;;;5055015;28;20029;-62
2022/05/27 00:17:35;;;;;;;50.20;33.05;;;27.70;99.90;;;;;;5054864;28;20091;-62
2022/05/27 00:20:01;;;;;;;50.38;32.75;;;27.80;99.90;;;;;;5046475;28;20032;-61
2022/05/27 00:22:28;;;;;;;48.13;32.40;;;27.90;99.90;;;;;;5034907;28;20051;-61
2022/05/27 00:24:55;;;;;;;51.03;32.95;;;27.90;99.90;;;;;;5034653;28;20025;-62
2022/05/27 00:27:21;;;;;;;50.65;32.78;;;28.00;99.90;;;;;;5034607;28;20022;-62
2022/05/27 00:29:48;;;;;;;39.47;28.08;;;28.00;99.90;;;;;;5048734;28;20074;-62
2022/05/27 00:32:15;;;;;;;42.60;25.85;;;28.10;99.90;;;;;;5053429;28;20017;-63
2022/05/27 00:34:41;;;;;;;51.83;25.05;;;28.10;99.90;;;;;;5047321;28;20391;-61
2022/05/27 00:37:08;;;;;;;37.05;25.48;;;28.20;99.90;;;;;;5023071;28;20475;-62
2022/05/27 00:39:38;;;;;;;37.45;23.52;;;28.20;99.90;;;;;;5050324;28;20429;-61
2022/05/27 00:42:05;;;;;;;38.05;24.55;;;28.20;99.90;;;;;;5052706;28;20056;-62
2022/05/27 00:44:31;;;;;;;30.05;21.48;;;28.30;99.90;;;;;;5054265;28;20046;-62
2022/05/27 00:47:14;;;;;;;34.53;23.33;;;28.30;99.90;;;;;;5052686;28;20282;-61
2022/05/27 00:49:46;;;;;;;32.40;22.20;;;28.40;99.90;;;;;;5054076;28;20078;-62
2022/05/27 00:52:16;;;;;;;33.22;22.35;;;28.40;99.90;;;;;;5054797;28;20108;-61
2022/05/27 00:54:44;;;;;;;31.75;21.88;;;28.50;99.90;;;;;;5054675;28;20028;-62
2022/05/27 00:57:17;;;;;;;36.33;23.35;;;28.60;99.90;;;;;;5051262;28;20021;-62
2022/05/27 00:59:47;;;;;;;32.92;23.60;;;28.60;99.90;;;;;;5053235;28;20031;-61
2022/05/27 01:02:14;;;;;;;31.05;20.02;;;28.60;99.90;;;;;;5041474;28;20082;-61
2022/05/27 01:04:41;;;;;;;24.50;19.15;;;28.70;99.90;;;;;;5035674;28;20036;-61
2022/05/27 01:07:08;;;;;;;21.17;17.33;;;28.70;99.90;;;;;;5053799;28;20100;-61
2022/05/27 01:09:37;;;;;;;27.73;17.95;;;28.80;99.90;;;;;;5053547;28;20033;-61
2022/05/27 01:12:24;;;;;;;25.40;18.67;;;28.90;99.90;;;;;;5043348;28;20087;-61
2022/05/27 01:15:11;;;;;;;27.30;18.63;;;28.90;99.90;;;;;;4953585;28;20446;-61
2022/05/27 01:18:04;;;;;;;24.65;16.60;;;28.90;99.90;;;;;;4952937;29;20118;-61
2022/05/27 01:20:46;;;;;;;26.70;17.95;;;29.00;99.90;;;;;;4952084;29;20544;-60
2022/05/27 01:23:41;;;;;;;25.85;20.00;;;29.00;99.90;;;;;;4942737;29;20079;-61
2022/05/27 01:26:28;;;;;;;26.20;17.92;;;29.10;99.90;;;;;;4947234;29;20078;-62
2022/05/27 01:29:17;;;;;;;24.60;17.10;;;29.10;99.90;;;;;;4944987;29;20106;-61
2022/05/27 01:31:49;;;;;;;29.00;18.70;;;29.20;99.90;;;;;;4940809;28;20164;-61
2022/05/27 01:34:30;;;;;;;31.35;17.45;;;29.20;99.90;;;;;;4942881;29;20028;-62
2022/05/27 01:37:09;;;;;;;38.78;17.70;;;29.30;99.90;;;;;;4947509;29;20035;-62
2022/05/27 01:39:37;;;;;;;25.52;18.80;;;29.30;99.90;;;;;;4953456;29;20126;-62
2022/05/27 01:42:08;;;;;;;30.02;19.10;;;29.40;99.90;;;;;;4953103;29;20408;-64
2022/05/27 01:44:48;;;;;;;25.92;20.10;;;29.30;99.90;;;;;;4953269;29;20433;-61
2022/05/27 01:47:22;;;;;;;29.48;20.13;;;29.20;99.90;;;;;;4950745;29;20035;-61
2022/05/27 01:49:59;;;;;;;26.42;19.42;;;29.10;99.90;;;;;;4949499;29;20135;-61
2022/05/27 01:52:49;;;;;;;30.98;22.30;;;29.00;99.90;;;;;;5022974;28;20509;-63
2022/05/27 01:55:57;;;;;;;33.05;22.42;;;29.00;99.90;;;;;;5050903;28;20128;-61
2022/05/27 01:58:28;;;;;;;37.40;27.85;;;29.00;99.90;;;;;;5049591;28;20112;-61
2022/05/27 02:00:55;;;;;;;44.88;30.88;;;29.00;99.90;;;;;;5042187;28;20060;-62
2022/05/27 02:03:23;;;;;;;46.40;31.77;;;29.00;99.90;;;;;;5020916;28;20033;-62
2022/05/27 02:06:12;;;;;;;45.33;31.65;;;29.00;99.90;;;;;;5046378;28;20425;-66
2022/05/27 02:08:43;;;;;;;51.08;40.22;;;29.00;99.90;;;;;;5046671;28;20057;-68
2022/05/27 02:11:13;;;;;;;56.72;40.13;;;28.90;99.90;;;;;;5050731;28;20025;-67
2022/05/27 02:13:41;;;;;;;63.00;44.72;;;29.00;99.90;;;;;;5053054;28;20102;-66
2022/05/27 02:16:13;;;;;;;63.80;43.38;;;28.90;99.90;;;;;;5047193;28;20025;-68
2022/05/27 02:18:44;;;;;;;60.70;45.47;;;28.90;99.90;;;;;;5048709;28;20052;-64
2022/05/27 02:21:20;;;;;;;62.28;45.05;;;28.90;99.90;;;;;;5036260;28;20029;-67
2022/05/27 02:24:08;;;;;;;55.28;42.88;;;28.90;99.90;;;;;;5023872;28;20025;-68
2022/05/27 02:26:45;;;;;;;107.78;81.35;;;29.00;99.90;;;;;;5026137;28;20040;-65
2022/05/27 02:29:17;;;;;;;158.02;107.28;;;29.10;99.90;;;;;;5029063;28;20032;-64
2022/05/27 02:31:54;;;;;;;210.85;135.00;;;29.10;99.90;;;;;;5030213;28;20303;-67
2022/05/27 02:37:30;;;;;;;178.55;114.07;;;29.50;99.90;;;;;;5025765;28;20026;-66
2022/05/27 02:39:58;;;;;;;220.70;139.52;;;29.50;99.90;;;;;;5044376;28;20033;-66
2022/05/27 02:42:51;;;;;;;189.00;117.55;;;29.60;99.90;;;;;;5042617;28;20390;-68
2022/05/27 02:45:24;;;;;;;182.63;115.85;;;29.70;99.90;;;;;;5016908;28;20082;-67
2022/05/27 02:48:07;;;;;;;193.18;122.97;;;29.80;99.90;;;;;;5049751;28;20071;-66
2022/05/27 02:50:44;;;;;;;234.25;157.95;;;29.80;99.90;;;;;;5043110;28;20017;-66
2022/05/27 02:53:20;;;;;;;188.60;120.20;;;29.70;99.90;;;;;;5055806;28;20017;-67
2022/05/27 02:56:07;;;;;;;170.60;107.13;;;29.70;99.90;;;;;;5033561;28;20056;-66
2022/05/27 02:58:34;;;;;;;185.77;124.38;;;29.70;99.90;;;;;;5027910;28;20060;-66
2022/05/27 03:01:02;;;;;;;295.13;185.95;;;29.70;99.90;;;;;;5031804;28;20017;-67
2022/05/27 03:03:29;;;;;;;286.83;187.95;;;29.60;99.90;;;;;;5034385;28;20021;-66
2022/05/27 03:06:18;;;;;;;251.73;164.95;;;29.60;99.90;;;;;;5049485;28;20025;-66
2022/05/27 03:09:13;;;;;;;185.65;116.88;;;29.60;99.90;;;;;;5023524;28;20378;-67
2022/05/27 03:11:44;;;;;;;235.60;143.20;;;29.70;99.90;;;;;;4965505;28;20134;-69
2022/05/27 03:14:17;;;;;;;174.20;110.97;;;29.70;99.90;;;;;;4960621;28;20519;-67
2022/05/27 03:17:12;;;;;;;184.85;117.22;;;29.70;99.90;;;;;;4955704;29;20047;-66
2022/05/27 03:19:49;;;;;;;208.13;138.73;;;29.70;99.90;;;;;;4955250;29;20417;-65
2022/05/27 03:22:44;;;;;;;159.82;105.95;;;29.70;99.90;;;;;;4955771;28;20090;-66
2022/05/27 03:25:33;;;;;;;192.13;134.60;;;29.80;99.90;;;;;;4933811;29;20051;-66
2022/05/27 03:28:27;;;;;;;201.63;140.48;;;29.90;99.90;;;;;;4945058;29;20455;-67
2022/05/27 03:31:01;;;;;;;190.65;134.95;;;29.90;99.90;;;;;;4936951;29;20126;-66
2022/05/27 03:33:28;;;;;;;186.45;124.47;;;29.90;99.90;;;;;;4940306;29;20501;-67
2022/05/27 03:36:02;;;;;;;164.05;110.80;;;29.90;99.90;;;;;;4937430;29;20040;-63
2022/05/27 03:38:29;;;;;;;141.65;92.22;;;30.00;99.90;;;;;;4935557;29;20032;-62
2022/05/27 03:41:15;;;;;;;162.90;105.70;;;30.10;99.90;;;;;;4935457;29;20043;-63
2022/05/27 03:43:44;;;;;;;137.07;91.05;;;30.30;99.90;;;;;;4934019;29;20043;-62
2022/05/27 03:46:10;;;;;;;141.45;90.22;;;30.20;99.90;;;;;;4933220;29;20499;-62
2022/05/27 03:48:38;;;;;;;155.13;110.65;;;30.20;99.90;;;;;;4949686;28;20107;-62
2022/05/27 03:51:19;;;;;;;133.75;93.15;;;30.20;99.90;;;;;;4965072;28;20440;-62
2022/05/27 03:56:36;;;;;;;148.13;99.28;;;30.40;99.90;;;;;;4967327;28;20093;-62
2022/05/27 03:59:04;;;;;;;139.97;93.53;;;30.50;99.90;;;;;;4969316;28;20026;-62
2022/05/27 04:01:33;;;;;;;136.63;90.65;;;30.70;99.90;;;;;;4978033;28;20040;-62
2022/05/27 04:04:02;;;;;;;145.93;85.40;;;30.70;99.90;;;;;;5031255;28;20360;-63
2022/05/27 04:06:29;;;;;;;127.10;80.20;;;30.70;99.90;;;;;;5035271;28;20033;-62
2022/05/27 04:08:57;;;;;;;113.60;71.50;;;30.90;99.90;;;;;;5032406;28;20339;-61
2022/05/27 04:11:25;;;;;;;116.80;79.55;;;30.90;99.90;;;;;;5024077;28;20030;-60
2022/05/27 04:13:52;;;;;;;129.05;80.40;;;31.00;99.90;;;;;;5027468;28;20026;-62
2022/05/27 04:16:19;;;;;;;108.03;70.68;;;31.10;99.90;;;;;;5018361;28;20060;-62
2022/05/27 04:18:47;;;;;;;102.85;71.15;;;31.30;99.90;;;;;;5029847;28;20049;-61
2022/05/27 04:21:14;;;;;;;105.15;68.18;;;31.30;99.90;;;;;;5032876;28;20057;-69
2022/05/27 04:23:41;;;;;;;103.03;67.28;;;31.30;99.90;;;;;;5025389;28;20028;-67
2022/05/27 04:26:08;;;;;;;91.88;64.13;;;31.30;99.90;;;;;;5032541;28;20556;-70
2022/05/27 04:28:35;;;;;;;92.07;61.58;;;31.40;99.90;;;;;;5032056;28;20301;-71
2022/05/27 04:31:03;;;;;;;94.95;63.38;;;31.40;99.90;;;;;;5032813;28;20100;-70
2022/05/27 04:33:30;;;;;;;87.07;60.65;;;31.50;99.90;;;;;;5030797;28;20018;-69
2022/05/27 04:35:58;;;;;;;86.35;59.33;;;31.60;99.90;;;;;;5029371;28;20127;-71
2022/05/27 04:38:26;;;;;;;84.53;58.42;;;31.50;99.90;;;;;;5034278;28;20026;-72
2022/05/27 04:40:53;;;;;;;94.00;60.90;;;31.50;99.90;;;;;;5053822;28;20095;-69
2022/05/27 04:43:20;;;;;;;92.57;59.65;;;31.40;99.90;;;;;;5050865;28;20910;-68
2022/05/27 04:45:47;;;;;;;86.45;59.67;;;31.40;99.90;;;;;;5051915;28;20052;-69
2022/05/27 04:48:14;;;;;;;87.40;61.53;;;31.30;99.90;;;;;;5046984;28;20025;-69
2022/05/27 04:50:41;;;;;;;97.47;65.82;;;31.40;99.90;;;;;;5040435;28;20045;-70
2022/05/27 04:53:09;;;;;;;96.00;63.35;;;31.30;99.90;;;;;;5026316;28;20014;-71
2022/05/27 04:55:37;;;;;;;104.72;65.72;;;31.30;99.90;;;;;;5033737;28;20091;-69
2022/05/27 04:58:05;;;;;;;93.97;62.28;;;31.40;99.90;;;;;;5030673;28;20022;-70
2022/05/27 05:00:37;;;;;;;89.13;60.78;;;31.50;99.90;;;;;;5032279;28;20021;-71
2022/05/27 05:03:05;;;;;;;88.53;60.40;;;31.50;99.90;;;;;;5018494;28;20034;-70
2022/05/27 05:05:34;;;;;;;73.25;53.78;;;31.60;99.90;;;;;;5034964;28;20083;-69
2022/05/27 05:08:22;;;;;;;90.65;60.63;;;31.70;99.90;;;;;;5029080;28;20060;-71
2022/05/27 05:10:48;;;;;;;89.05;56.97;;;31.70;99.90;;;;;;4944499;29;20082;-70
2022/05/27 05:13:15;;;;;;;81.72;58.13;;;31.80;99.90;;;;;;4954406;29;20480;-69
2022/05/27 05:15:42;;;;;;;76.85;55.72;;;31.90;99.90;;;;;;4954201;29;20046;-69
2022/05/27 05:18:09;;;;;;;79.25;54.30;;;32.10;99.90;;;;;;4968054;28;20041;-71
2022/05/27 05:20:36;;;;;;;78.32;54.85;;;32.20;99.90;;;;;;4972750;28;20117;-72
2022/05/27 05:23:03;;;;;;;81.88;56.88;;;32.20;99.90;;;;;;4973728;28;20026;-70
2022/05/27 05:25:30;;;;;;;65.72;49.70;;;32.40;99.90;;;;;;4970041;28;20031;-71
2022/05/27 05:27:57;;;;;;;68.13;47.05;;;32.50;99.90;;;;;;4972427;28;20476;-72
2022/05/27 05:30:26;;;;;;;74.32;50.10;;;32.50;99.90;;;;;;4969584;28;20038;-71
2022/05/27 05:32:53;;;;;;;65.18;46.83;;;32.50;99.90;;;;;;4936050;29;20031;-72
2022/05/27 05:35:20;;;;;;;70.55;49.80;;;32.40;99.90;;;;;;4943840;28;20078;-71
2022/05/27 05:37:47;;;;;;;66.43;48.50;;;32.30;99.90;;;;;;4953215;29;20027;-70
2022/05/27 05:40:15;;;;;;;77.78;49.63;;;32.30;99.90;;;;;;4948178;28;20058;-69
2022/05/27 05:42:43;;;;;;;65.05;48.92;;;32.20;99.90;;;;;;5030289;28;20029;-69
2022/05/27 05:45:11;;;;;;;68.50;48.55;;;32.20;99.80;;;;;;5022256;28;20030;-69
2022/05/27 05:47:38;;;;;;;76.57;53.38;;;32.10;99.90;;;;;;5026262;28;20058;-69
2022/05/27 05:50:05;;;;;;;78.05;52.67;;;32.00;99.20;;;;;;5026272;28;20030;-68
2022/05/27 05:52:32;;;;;;;69.82;48.50;;;32.00;99.90;;;;;;5013447;28;20029;-68
2022/05/27 05:54:58;;;;;;;73.78;51.45;;;32.00;99.90;;;;;;5014089;28;20018;-69
2022/05/27 05:57:25;;;;;;;71.05;50.88;;;32.00;99.90;;;;;;5017915;28;20041;-68
2022/05/27 05:59:52;;;;;;;63.55;46.47;;;31.90;99.90;;;;;;5039809;28;20025;-70
2022/05/27 06:02:19;;;;;;;70.20;48.75;;;32.00;99.90;;;;;;5032199;28;20387;-71
2022/05/27 06:04:45;;;;;;;74.57;50.50;;;32.20;99.90;;;;;;5029619;28;20108;-70
2022/05/27 06:07:12;;;;;;;71.18;49.60;;;32.20;99.90;;;;;;5040520;28;20029;-69
2022/05/27 06:09:40;;;;;;;71.40;49.58;;;32.20;99.90;;;;;;5031238;28;20030;-70
2022/05/27 06:12:07;;;;;;;62.22;46.63;;;32.20;99.70;;;;;;5038810;28;20504;-69
2022/05/27 06:14:34;;;;;;;64.80;46.90;;;32.20;99.30;;;;;;5051765;28;20025;-63
2022/05/27 06:17:01;;;;;;;73.97;51.90;;;32.00;99.60;;;;;;5035161;28;20030;-66
2022/05/27 06:19:28;;;;;;;71.05;46.90;;;32.10;99.90;;;;;;5036749;28;20068;-62
2022/05/27 06:21:54;;;;;;;86.43;46.03;;;32.20;99.90;;;;;;5036893;28;20026;-63
2022/05/27 06:24:21;;;;;;;65.35;44.60;;;32.20;99.90;;;;;;5036684;28;20502;-63
2022/05/27 06:26:48;;;;;;;68.25;46.22;;;32.20;99.90;;;;;;5036061;28;20445;-62
2022/05/27 06:34:50;;;;;;;78.53;52.53;;;32.70;99.90;;;;;;5041954;28;20048;-62
2022/05/27 06:37:21;;;;;;;68.65;49.83;;;32.80;98.20;;;;;;5039855;28;20024;-63
2022/05/27 06:39:49;;;;;;;67.70;48.63;;;32.80;99.00;;;;;;5037899;28;20482;-62
2022/05/27 06:42:17;;;;;;;70.65;49.70;;;32.80;99.20;;;;;;5029504;28;20419;-62
2022/05/27 06:44:44;;;;;;;75.00;48.95;;;32.80;99.00;;;;;;5033256;28;20036;-62
2022/05/27 06:47:11;;;;;;;69.13;47.75;;;32.80;97.90;;;;;;5030719;28;20494;-62
2022/05/27 06:49:38;;;;;;;72.78;48.50;;;32.80;97.40;;;;;;5025550;28;20105;-62
2022/05/27 06:52:07;;;;;;;66.63;48.65;;;32.70;97.40;;;;;;5022906;28;20010;-62
2022/05/27 06:54:35;;;;;;;74.18;52.58;;;32.80;97.80;;;;;;5033295;28;20032;-62
2022/05/27 06:57:03;;;;;;;76.50;50.83;;;32.90;97.60;;;;;;5027727;28;20025;-61
2022/05/27 06:59:30;;;;;;;83.70;49.67;;;33.00;97.30;;;;;;5031995;28;20037;-63
2022/05/27 07:01:57;;;;;;;77.05;51.08;;;33.00;96.20;;;;;;5030586;28;20084;-61
2022/05/27 07:04:24;;;;;;;76.82;56.00;;;32.90;96.20;;;;;;5028078;28;20037;-60
2022/05/27 07:06:51;;;;;;;79.78;53.50;;;32.80;94.90;;;;;;5035810;28;20037;-62
2022/05/27 07:09:20;;;;;;;66.25;49.50;;;32.70;94.70;;;;;;5030029;28;20067;-63
2022/05/27 07:11:49;;;;;;;64.60;47.53;;;32.60;95.40;;;;;;5032913;28;20018;-63
2022/05/27 07:14:19;;;;;;;89.80;56.05;;;32.60;96.70;;;;;;5020475;28;20026;-64
2022/05/27 07:16:48;;;;;;;73.15;53.00;;;32.70;96.10;;;;;;5023644;28;20573;-63
2022/05/27 07:19:17;;;;;;;77.28;51.13;;;32.60;95.20;;;;;;5029636;28;20025;-62
2022/05/27 07:21:44;;;;;;;67.28;47.72;;;32.60;95.70;;;;;;5029625;28;20030;-63
2022/05/27 07:24:14;;;;;;;61.80;47.55;;;32.60;96.10;;;;;;5026187;28;20033;-63
2022/05/27 07:26:42;;;;;;;67.20;50.63;;;32.60;96.10;;;;;;5028268;28;20111;-62
2022/05/27 07:29:09;;;;;;;61.88;49.70;;;32.60;96.50;;;;;;5026812;28;20038;-63
2022/05/27 07:31:38;;;;;;;86.57;62.35;;;32.60;96.60;;;;;;5030183;28;20479;-63
2022/05/27 07:34:05;;;;;;;103.32;70.45;;;32.60;96.90;;;;;;5027917;28;20022;-64
2022/05/27 07:36:34;;;;;;;100.32;76.25;;;32.60;97.00;;;;;;5028872;28;20144;-63
2022/05/27 07:39:00;;;;;;;75.88;57.03;;;32.60;96.60;;;;;;5031958;28;20029;-63
2022/05/27 07:41:27;;;;;;;86.28;62.28;;;32.60;96.20;;;;;;5026600;28;20099;-63
2022/05/27 07:43:55;;;;;;;77.50;57.00;;;32.60;97.00;;;;;;5027943;28;20099;-63
2022/05/27 07:46:23;;;;;;;78.10;57.65;;;32.60;96.70;;;;;;5028806;28;20475;-63
2022/05/27 07:48:50;;;;;;;74.80;55.65;;;32.60;96.70;;;;;;5033779;28;20041;-61
2022/05/27 07:51:17;;;;;;;72.75;54.30;;;32.60;97.00;;;;;;5024687;28;20121;-60
2022/05/27 07:53:43;;;;;;;71.80;53.33;;;32.60;96.20;;;;;;5028402;28;20045;-61
2022/05/27 07:56:11;;;;;;;79.47;54.03;;;32.60;96.70;;;;;;5023912;28;20530;-61
2022/05/27 07:58:38;;;;;;;72.75;52.60;;;32.70;96.40;;;;;;5022780;28;20036;-61
2022/05/27 08:01:06;;;;;;;68.90;49.95;;;32.70;96.20;;;;;;5025919;28;20509;-61
2022/05/27 08:03:33;;;;;;;69.10;49.83;;;32.70;95.70;;;;;;5013263;28;20036;-61
2022/05/27 08:06:00;;;;;;;72.70;50.80;;;32.70;94.60;;;;;;5035055;28;20057;-64
2022/05/27 08:08:29;;;;;;;74.00;52.35;;;32.70;95.70;;;;;;5031510;28;20049;-63
2022/05/27 08:10:57;;;;;;;87.47;62.92;;;32.70;95.60;;;;;;5024680;28;20030;-63
2022/05/27 08:13:23;;;;;;;98.30;76.38;;;32.80;95.60;;;;;;5026719;28;20374;-60
2022/05/27 08:15:52;;;;;;;98.38;76.22;;;32.80;95.80;;;;;;5023351;28;20049;-62
2022/05/27 08:18:19;;;;;;;131.38;103.05;;;32.70;95.60;;;;;;5028684;28;20029;-61
2022/05/27 08:20:46;;;;;;;65.35;47.20;;;32.70;95.60;;;;;;5026077;28;20036;-62
2022/05/27 08:23:13;;;;;;;55.35;44.28;;;32.80;95.10;;;;;;5029164;28;20025;-61
2022/05/27 08:25:40;;;;;;;57.60;39.17;;;32.70;95.50;;;;;;5028914;28;20425;-61
2022/05/27 08:28:08;;;;;;;62.72;41.47;;;32.70;95.60;;;;;;5030596;28;20433;-61
2022/05/27 08:30:37;;;;;;;132.75;97.32;;;32.60;95.90;;;;;;5022225;28;20083;-60
2022/05/27 08:33:04;;;;;;;121.13;89.13;;;32.60;96.80;;;;;;5031465;28;20026;-61
2022/05/27 08:38:22;;;;;;;90.90;75.07;;;32.50;96.30;;;;;;5032748;28;20029;-61
2022/05/27 08:41:10;;;;;;;279.02;235.35;;;32.50;95.80;;;;;;5024290;28;20042;-61
2022/05/27 08:43:51;;;;;;;75.60;56.72;;;32.50;95.90;;;;;;5024556;28;20032;-61
2022/05/27 08:46:41;;;;;;;79.60;59.47;;;32.50;96.60;;;;;;5024728;28;20033;-61
2022/05/27 08:49:14;;;;;;;109.55;84.70;;;32.60;96.50;;;;;;5034565;28;20489;-72
2022/05/27 08:51:46;;;;;;;78.50;54.25;;;32.50;96.50;;;;;;5024688;28;20038;-62
2022/05/27 08:54:22;;;;;;;104.85;76.00;;;32.50;96.00;;;;;;5023473;28;20379;-63
2022/05/27 08:59:46;;;;;;;77.68;53.45;;;32.50;96.20;;;;;;5019707;28;20044;-62
2022/05/27 09:02:15;;;;;;;190.25;95.32;;;32.60;95.90;;;;;;5032613;28;20047;-62
2022/05/27 09:04:44;;;;;;;117.53;78.20;;;32.50;95.90;;;;;;5027206;28;20288;-63
2022/05/27 09:07:31;;;;;;;85.38;40.45;;;32.50;95.70;;;;;;5026746;28;20063;-65
2022/05/27 09:10:01;;;;;;;102.20;46.05;;;32.50;95.20;;;;;;5024580;28;20034;-65
2022/05/27 09:13:08;;;;;;;66.07;39.40;;;32.50;95.40;;;;;;5045917;28;20048;-64
2022/05/27 09:15:36;;;;;;;136.68;65.72;;;32.50;95.60;;;;;;5027694;28;20025;-65
2022/05/27 09:18:06;;;;;;;82.75;46.75;;;32.60;95.20;;;;;;5044524;28;20028;-62
2022/05/27 09:20:48;;;;;;;56.30;36.00;;;32.50;96.30;;;;;;5029996;28;20390;-62
2022/05/27 09:23:36;;;;;;;68.50;38.47;;;32.50;94.80;;;;;;5029679;28;20489;-62
2022/05/27 09:26:04;;;;;;;80.15;42.47;;;32.60;95.30;;;;;;5029449;28;20069;-62
2022/05/27 09:28:59;;;;;;;81.30;45.42;;;32.50;95.10;;;;;;5027714;28;20057;-60
2022/05/27 09:31:45;;;;;;;83.57;47.67;;;32.50;95.20;;;;;;5029101;28;20026;-63
2022/05/27 09:34:13;;;;;;;52.53;35.10;;;32.60;95.30;;;;;;5027568;28;20249;-62
2022/05/27 09:36:46;;;;;;;42.22;27.90;;;32.60;95.90;;;;;;5024709;28;20052;-63
2022/05/27 09:39:16;;;;;;;51.88;30.25;;;32.60;95.40;;;;;;5025321;28;20501;-63
2022/05/27 09:42:02;;;;;;;54.17;33.08;;;32.50;95.10;;;;;;5025150;28;20124;-63
2022/05/27 09:44:35;;;;;;;43.28;30.65;;;32.50;95.30;;;;;;5028384;28;20044;-64
2022/05/27 09:47:04;;;;;;;43.40;32.22;;;32.50;96.10;;;;;;5028473;28;20026;-64
2022/05/27 09:49:31;;;;;;;52.28;33.58;;;32.60;95.60;;;;;;5023318;28;20055;-64
2022/05/27 09:51:59;;;;;;;44.40;29.08;;;32.50;95.70;;;;;;5024033;28;20475;-64
2022/05/27 09:54:35;;;;;;;48.35;29.27;;;32.60;95.30;;;;;;5023016;28;20104;-64
2022/05/27 09:57:16;;;;;;;40.92;29.58;;;32.60;95.90;;;;;;5025590;28;20482;-63
2022/05/27 09:59:45;;;;;;;48.30;31.02;;;32.60;96.30;;;;;;5032911;28;20033;-63
2022/05/27 10:02:34;;;;;;;49.70;31.48;;;32.60;96.40;;;;;;5032421;28;20103;-63
2022/05/27 10:05:03;;;;;;;42.47;30.65;;;32.60;96.20;;;;;;4971566;28;20038;-64
2022/05/27 10:07:36;;;;;;;40.25;28.05;;;32.60;95.80;;;;;;4969016;28;20098;-63
2022/05/27 10:10:24;;;;;;;35.78;24.77;;;32.60;95.50;;;;;;4971214;28;20035;-63
2022/05/27 10:12:52;;;;;;;32.40;25.13;;;32.50;95.20;;;;;;4969923;28;20531;-65
2022/05/27 10:15:27;;;;;;;134.57;102.85;;;32.50;96.00;;;;;;4969576;28;20057;-63
2022/05/27 10:17:54;;;;;;;62.55;43.50;;;32.40;95.60;;;;;;4970759;28;20056;-64
2022/05/27 10:20:30;;;;;;;38.65;27.45;;;32.40;95.70;;;;;;4973250;28;20050;-63
2022/05/27 10:23:04;;;;;;;39.90;27.88;;;32.40;95.50;;;;;;4970521;28;20091;-63
2022/05/27 10:25:42;;;;;;;42.15;28.65;;;32.40;95.70;;;;;;4969805;28;20539;-63
2022/05/27 10:28:23;;;;;;;41.97;29.52;;;32.40;94.90;;;;;;4967537;28;20039;-63
2022/05/27 10:30:56;;;;;;;53.10;31.50;;;32.30;95.20;;;;;;4970732;28;20450;-63
2022/05/27 10:33:36;;;;;;;56.95;32.10;;;32.30;95.30;;;;;;4967697;28;20027;-65
2022/05/27 10:36:19;;;;;;;49.72;31.63;;;32.30;95.80;;;;;;5003989;28;20026;-62
2022/05/27 10:38:56;;;;;;;39.10;26.85;;;32.30;95.50;;;;;;5028857;28;20118;-63
2022/05/27 10:41:35;;;;;;;39.60;24.92;;;32.20;95.70;;;;;;5028501;28;20056;-63
2022/05/27 10:44:14;;;;;;;40.17;25.08;;;32.20;95.30;;;;;;5025196;28;20106;-63
2022/05/27 10:46:51;;;;;;;41.63;29.33;;;32.20;95.70;;;;;;5028415;28;20382;-62
2022/05/27 10:49:30;;;;;;;52.38;35.47;;;32.20;95.70;;;;;;5023660;28;20033;-64
2022/05/27 10:51:59;;;;;;;78.13;38.20;;;32.10;95.60;;;;;;5026137;28;20072;-63
2022/05/27 10:55:07;;;;;;;78.95;41.58;;;32.10;95.70;;;;;;5026641;28;20025;-63
2022/05/27 11:04:03;;;;;;;138.13;95.72;;;31.90;96.10;;;;;;4989478;28;20089;-64
2022/05/27 11:06:59;;;;;;;213.25;151.93;;;31.80;95.30;;;;;;4998113;28;20034;-62
2022/05/27 11:09:45;;;;;;;155.95;123.38;;;31.70;95.10;;;;;;4943324;29;20040;-63
2022/05/27 11:15:10;;;;;;;84.80;65.22;;;31.70;94.80;;;;;;4945114;29;20031;-62
2022/05/27 11:15:31;;;;;;;85.53;61.08;;;31.70;94.80;;;;;;4942190;29;20630;-62
2022/05/27 11:18:20;;;;;;;90.57;56.90;;;31.70;95.40;;;;;;4942081;29;20533;-63
2022/05/27 11:20:51;;;;;;;90.18;61.50;;;31.70;96.20;;;;;;4935675;29;20098;-61
2022/05/27 11:23:36;;;;;;;93.28;66.03;;;31.60;96.10;;;;;;4942042;29;20035;-63
2022/05/27 11:26:23;;;;;;;100.13;68.13;;;31.60;96.60;;;;;;4940276;29;20091;-64
2022/05/27 11:29:00;;;;;;;117.53;78.07;;;31.60;96.10;;;;;;4940462;29;20385;-63
2022/05/27 11:31:37;;;;;;;115.13;78.50;;;31.60;95.50;;;;;;4941152;29;20026;-63
2022/05/27 11:34:23;;;;;;;124.18;76.30;;;31.50;95.60;;;;;;4941595;29;20549;-64
2022/05/27 11:37:09;;;;;;;107.10;70.70;;;31.50;95.60;;;;;;4942230;29;20027;-62
2022/05/27 11:39:53;;;;;;;117.50;72.18;;;31.40;95.80;;;;;;4940635;29;20441;-63
2022/05/27 11:42:29;;;;;;;186.95;146.13;;;31.40;96.20;;;;;;4934701;29;20317;-63
2022/05/27 11:45:24;;;;;;;132.73;90.78;;;31.50;96.70;;;;;;4935475;29;20059;-64
2022/05/27 11:48:02;;;;;;;121.40;81.10;;;31.50;96.60;;;;;;5027484;28;20487;-63
2022/05/27 11:50:32;;;;;;;133.93;91.47;;;31.40;96.00;;;;;;5021556;28;20040;-64
2022/05/27 11:53:21;;;;;;;149.60;106.22;;;31.30;96.00;;;;;;5024876;28;20399;-65
2022/05/27 11:56:09;;;;;;;183.68;118.60;;;31.20;95.90;;;;;;5026396;28;20026;-63
2022/05/27 11:58:48;;;;;;;149.07;105.22;;;31.20;96.20;;;;;;5031495;28;20026;-64
2022/05/27 12:01:21;;;;;;;155.45;90.38;;;31.20;96.50;;;;;;5030052;28;20029;-62
2022/05/27 12:04:06;;;;;;;126.30;78.85;;;31.20;96.80;;;;;;5030052;28;20030;-63
2022/05/27 12:06:59;;;;;;;112.68;75.30;;;31.20;96.80;;;;;;5034979;28;20034;-62
2022/05/27 12:09:46;;;;;;;120.30;76.15;;;31.10;97.00;;;;;;5035059;28;20029;-63
2022/05/27 12:12:35;;;;;;;105.05;73.13;;;31.20;97.70;;;;;;5032477;28;20060;-63
2022/05/27 12:15:21;;;;;;;132.45;87.15;;;31.20;97.80;;;;;;5030764;28;20038;-61
2022/05/27 12:17:51;;;;;;;150.15;99.82;;;31.20;97.70;;;;;;5034439;28;20055;-62
2022/05/27 12:20:30;;;;;;;138.88;94.57;;;31.10;97.70;;;;;;5034499;28;20100;-64
2022/05/27 12:22:58;;;;;;;184.70;122.13;;;31.10;97.80;;;;;;5046321;28;20067;-63
2022/05/27 12:25:30;;;;;;;160.13;100.93;;;31.10;98.60;;;;;;5038205;28;20028;-63
2022/05/27 12:28:00;;;;;;;151.00;97.38;;;31.10;98.70;;;;;;5028744;28;20039;-62
2022/05/27 12:30:32;;;;;;;214.27;146.25;;;31.20;98.50;;;;;;5029101;28;20045;-63
2022/05/27 12:33:00;;;;;;;140.98;97.28;;;31.10;98.40;;;;;;5025093;28;20018;-62
2022/05/27 12:35:47;;;;;;;154.98;104.63;;;31.00;98.20;;;;;;5022251;28;20025;-62
2022/05/27 12:38:17;;;;;;;151.05;102.90;;;31.00;99.10;;;;;;5023334;28;20021;-63
2022/05/27 12:40:50;;;;;;;132.25;91.07;;;30.90;99.30;;;;;;5025820;28;20041;-63
2022/05/27 12:43:18;;;;;;;121.82;80.85;;;30.90;99.10;;;;;;5030151;28;20037;-63
2022/05/27 12:45:49;;;;;;;128.65;79.47;;;30.80;98.70;;;;;;5032808;28;20025;-68
2022/05/27 12:48:26;;;;;;;113.35;76.10;;;30.80;99.10;;;;;;5023423;28;20026;-62
2022/05/27 12:50:57;;;;;;;148.38;74.20;;;30.80;99.10;;;;;;5018622;28;20379;-62
2022/05/27 12:53:43;;;;;;;164.93;112.07;;;30.70;98.50;;;;;;5014365;28;20081;-62
2022/05/27 13:02:22;;;;;;;236.45;138.48;;;30.60;99.10;;;;;;4925037;29;20630;-63
2022/05/27 13:04:52;;;;;;;160.43;99.07;;;30.60;99.10;;;;;;4919286;29;20064;-63
2022/05/27 13:07:39;;;;;;;98.70;66.85;;;30.60;99.80;;;;;;4932133;29;20032;-63
2022/05/27 13:10:26;;;;;;;105.78;65.82;;;30.50;99.40;;;;;;4938277;29;20123;-63
2022/05/27 13:12:57;;;;;;;108.50;66.22;;;30.40;99.70;;;;;;4934173;29;20040;-63
2022/05/27 13:15:44;;;;;;;96.68;62.90;;;30.40;99.90;;;;;;4934180;29;20052;-63
2022/05/27 13:18:22;;;;;;;83.28;56.25;;;30.30;99.90;;;;;;4875303;29;20044;-62
2022/05/27 13:20:55;;;;;;;69.13;47.63;;;30.30;99.90;;;;;;4886257;29;20120;-63
2022/05/27 13:23:26;;;;;;;84.82;49.60;;;30.30;99.90;;;;;;4896445;29;20040;-63